createdAt,value
2016-12-27T09:48:02.419Z,8320
2016-12-27T09:58:16.850Z,9652
2016-12-27T10:08:30.598Z,10472
2016-12-27T10:18:44.113Z,11024
2016-12-27T10:28:58.968Z,11632
2016-12-27T10:39:12.627Z,11936
2016-12-27T10:49:27.451Z,12316
2016-12-27T10:59:42.237Z,12400
2016-12-27T11:09:55.881Z,12860
2016-12-27T11:20:10.709Z,13176
2016-12-27T11:30:24.749Z,12764
2016-12-27T11:40:38.586Z,13492
2016-12-27T11:50:53.370Z,13076
2016-12-27T12:01:07.480Z,16320
2016-12-27T12:11:20.635Z,14216
2016-12-27T12:21:35.488Z,13564
2016-12-27T12:31:50.205Z,12968
2016-12-27T12:42:04.422Z,11512
2016-12-27T12:52:19.133Z,11820
2016-12-27T13:02:34.124Z,7400
2016-12-27T13:12:47.638Z,14036
2016-12-27T13:23:02.230Z,11052
2016-12-27T13:33:17.165Z,8284
2016-12-27T13:43:30.537Z,6392
2016-12-27T13:53:44.459Z,5440
2016-12-27T14:03:59.478Z,5252
2016-12-27T14:14:14.098Z,4580
2016-12-27T14:24:28.482Z,4220
2016-12-27T14:34:43.604Z,2568
2016-12-27T14:44:56.967Z,1664
2016-12-27T14:55:11.449Z,1404
2016-12-27T15:05:26.293Z,968
2016-12-27T15:15:39.789Z,504
2016-12-27T15:25:54.857Z,240
2016-12-27T15:36:09.010Z,108
2016-12-27T15:46:23.507Z,24
2016-12-27T15:56:37.187Z,4
2016-12-27T16:06:50.784Z,0
2016-12-27T16:17:04.054Z,0
2016-12-27T16:27:17.625Z,0
2016-12-27T16:37:31.852Z,0
2016-12-27T16:47:46.637Z,0
2016-12-27T16:58:00.741Z,0
2016-12-27T17:08:15.140Z,0
2016-12-27T17:18:28.713Z,0
2016-12-27T17:28:42.061Z,0
2016-12-27T17:38:55.884Z,0
2016-12-27T17:49:09.541Z,0
2016-12-27T17:59:22.635Z,0
2016-12-27T18:09:35.995Z,0
2016-12-27T18:19:50.890Z,0
2016-12-27T18:30:04.997Z,0
2016-12-27T18:40:18.616Z,0
2016-12-27T18:50:32.383Z,0
2016-12-27T19:00:46.315Z,0
2016-12-27T19:10:59.357Z,0
2016-12-27T19:21:13.021Z,0
2016-12-27T19:31:26.392Z,0
2016-12-27T19:41:40.503Z,0
2016-12-27T19:51:54.321Z,0
2016-12-27T20:02:07.871Z,0
2016-12-27T20:12:22.602Z,0
2016-12-27T20:22:37.143Z,0
2016-12-27T20:32:50.437Z,0
2016-12-27T20:43:03.534Z,0
2016-12-27T20:53:17.262Z,0
2016-12-27T21:03:31.288Z,0
2016-12-27T21:13:45.267Z,0
2016-12-27T21:23:58.621Z,0
2016-12-27T21:34:12.607Z,0
2016-12-27T21:44:26.828Z,0
2016-12-27T21:54:40.395Z,0
2016-12-27T22:04:55.023Z,0
2016-12-27T22:15:08.842Z,0
2016-12-27T22:25:22.056Z,0
2016-12-27T22:35:35.473Z,0
2016-12-27T22:45:49.303Z,0
2016-12-27T22:56:04.286Z,0
2016-12-27T23:06:18.569Z,0
2016-12-27T23:16:31.669Z,0
2016-12-27T23:26:46.709Z,0
2016-12-27T23:37:00.846Z,0
2016-12-27T23:47:14.923Z,0
2016-12-27T23:57:29.437Z,0
